createdAt,value
2022-09-10T00:00:04.840Z,6.03
2022-09-10T00:02:34.745Z,6.00
2022-09-10T00:05:04.972Z,5.55
2022-09-10T00:07:54.832Z,5.97
2022-09-10T00:10:26.397Z,5.43
2022-09-10T00:12:56.911Z,6.57
2022-09-10T00:15:26.945Z,6.22
2022-09-10T00:17:57.308Z,5.90
2022-09-10T00:20:27.283Z,6.00
2022-09-10T00:22:58.456Z,6.20
2022-09-10T00:25:32.164Z,6.13
2022-09-10T00:28:02.221Z,6.20
2022-09-10T00:30:32.033Z,5.88
2022-09-10T00:33:03.143Z,6.40
2022-09-10T00:35:33.864Z,6.38
2022-09-10T00:38:05.435Z,6.07
2022-09-10T00:40:35.698Z,6.45
2022-09-10T00:43:12.803Z,6.43
2022-09-10T00:45:45.238Z,5.45
2022-09-10T00:48:19.468Z,5.72
2022-09-10T00:50:51.849Z,5.68
2022-09-10T00:53:27.660Z,5.38
2022-09-10T00:56:05.263Z,5.30
2022-09-10T00:58:36.499Z,5.18
2022-09-10T01:01:07.711Z,4.90
2022-09-10T01:03:39.932Z,5.13
2022-09-10T01:06:10.676Z,4.95
2022-09-10T01:08:42.068Z,4.43
2022-09-10T01:11:34.853Z,4.85
2022-09-10T01:14:20.596Z,5.18
2022-09-10T01:17:03.470Z,5.22
2022-09-10T01:20:05.747Z,5.32
2022-09-10T01:22:55.225Z,5.25
2022-09-10T01:25:40.569Z,4.60
2022-09-10T01:28:18.600Z,5.10
2022-09-10T01:30:53.172Z,5.07
2022-09-10T01:33:30.525Z,5.05
2022-09-10T01:36:04.581Z,5.50
2022-09-10T01:38:38.725Z,5.57
2022-09-10T01:41:10.763Z,5.03
2022-09-10T01:43:42.297Z,5.68
2022-09-10T01:46:28.339Z,5.47
2022-09-10T01:49:11.313Z,5.95
2022-09-10T01:51:56.713Z,4.82
2022-09-10T01:54:41.024Z,5.43
2022-09-10T01:59:53.755Z,5.68
2022-09-10T02:02:30.095Z,7.28
2022-09-10T02:05:02.603Z,6.75
2022-09-10T02:07:34.965Z,7.32
2022-09-10T02:10:07.198Z,9.55
2022-09-10T02:12:40.078Z,9.68
2022-09-10T02:15:12.820Z,9.90
2022-09-10T02:17:44.093Z,9.93
2022-09-10T02:20:14.956Z,9.30
2022-09-10T02:22:51.749Z,9.80
2022-09-10T02:25:21.530Z,9.93
2022-09-10T02:27:51.339Z,9.70
2022-09-10T02:30:24.838Z,9.52
2022-09-10T02:32:54.664Z,10.07
2022-09-10T02:35:24.502Z,8.55
2022-09-10T02:37:54.463Z,9.60
2022-09-10T02:40:24.311Z,8.93
2022-09-10T02:42:55.623Z,9.73
2022-09-10T02:45:26.917Z,9.00
2022-09-10T02:47:56.744Z,8.48
2022-09-10T02:50:26.642Z,9.02
2022-09-10T02:52:57.618Z,9.43
2022-09-10T02:55:27.524Z,9.27
2022-09-10T02:57:58.371Z,9.70
2022-09-10T03:00:31.595Z,9.55
2022-09-10T03:03:03.274Z,9.52
2022-09-10T03:05:33.532Z,8.75
2022-09-10T03:08:04.188Z,8.90
2022-09-10T03:10:34.250Z,8.93
2022-09-10T03:13:04.185Z,8.75
2022-09-10T03:15:36.021Z,8.68
2022-09-10T03:18:06.811Z,10.02
2022-09-10T03:20:37.339Z,9.75
2022-09-10T03:23:07.807Z,9.45
2022-09-10T03:25:37.768Z,8.68
2022-09-10T03:28:07.659Z,8.90
2022-09-10T03:30:40.255Z,8.40
2022-09-10T03:33:11.878Z,9.50
2022-09-10T03:35:41.832Z,9.10
2022-09-10T03:38:11.648Z,7.82
2022-09-10T03:40:41.977Z,8.00
2022-09-10T03:43:14.012Z,8.00
2022-09-10T03:45:45.552Z,9.02
2022-09-10T03:48:15.418Z,8.10
2022-09-10T03:50:46.042Z,8.88
2022-09-10T03:53:18.045Z,9.00
2022-09-10T03:55:51.893Z,9.02
2022-09-10T03:58:21.868Z,8.77
2022-09-10T04:00:53.063Z,8.43
2022-09-10T04:03:23.071Z,9.25
2022-09-10T04:05:52.975Z,9.60
2022-09-10T04:08:23.293Z,8.57
2022-09-10T04:10:53.093Z,9.40
2022-09-10T04:13:23.125Z,8.90
2022-09-10T04:15:56.096Z,8.35
2022-09-10T04:18:27.451Z,8.48
2022-09-10T04:20:57.387Z,8.38
2022-09-10T04:23:27.507Z,8.57
2022-09-10T04:25:57.577Z,7.60
2022-09-10T04:28:27.526Z,7.82
2022-09-10T04:30:59.740Z,8.52
2022-09-10T04:33:29.559Z,9.52
2022-09-10T04:36:00.978Z,8.73
2022-09-10T04:38:31.247Z,7.70
2022-09-10T04:41:01.704Z,7.82
2022-09-10T04:43:32.797Z,7.57
2022-09-10T04:46:04.136Z,7.45
2022-09-10T04:48:34.485Z,7.53
2022-09-10T04:51:16.173Z,7.47
2022-09-10T04:53:47.473Z,7.03
2022-09-10T04:56:18.445Z,8.55
2022-09-10T04:58:48.471Z,8.20
2022-09-10T05:01:19.882Z,9.50
2022-09-10T05:03:49.648Z,9.10
2022-09-10T05:06:20.361Z,8.90
2022-09-10T05:08:51.172Z,9.75
2022-09-10T05:11:21.314Z,7.50
2022-09-10T05:13:51.316Z,8.43
2022-09-10T05:16:22.567Z,7.40
2022-09-10T05:18:53.190Z,8.18
2022-09-10T05:21:23.632Z,7.50
2022-09-10T05:23:53.384Z,10.80
2022-09-10T05:26:23.300Z,8.13
2022-09-10T05:28:55.568Z,8.25
2022-09-10T05:31:27.850Z,8.13
2022-09-10T05:33:59.368Z,8.45
2022-09-10T05:36:32.040Z,8.68
2022-09-10T05:39:03.173Z,10.15
2022-09-10T05:41:33.289Z,7.95
2022-09-10T05:44:03.194Z,8.85
2022-09-10T05:46:34.689Z,9.35
2022-09-10T05:49:04.500Z,9.82
2022-09-10T05:51:34.444Z,10.30
2022-09-10T05:54:04.501Z,11.48
2022-09-10T05:56:34.775Z,10.65
2022-09-10T05:59:05.654Z,11.02
2022-09-10T06:01:37.768Z,10.85
2022-09-10T06:04:07.472Z,10.75
2022-09-10T06:06:37.301Z,10.27
2022-09-10T06:09:07.296Z,10.38
2022-09-10T06:11:37.117Z,12.27
2022-09-10T06:14:07.344Z,11.65
2022-09-10T06:16:38.982Z,11.18
2022-09-10T06:19:09.719Z,10.27
2022-09-10T06:21:39.506Z,11.00
2022-09-10T06:24:10.628Z,10.85
2022-09-10T06:26:40.535Z,11.25
2022-09-10T06:29:11.742Z,11.50
2022-09-10T06:31:43.391Z,10.05
2022-09-10T06:34:13.137Z,11.00
2022-09-10T06:36:43.732Z,10.52
2022-09-10T06:39:13.504Z,11.02
2022-09-10T06:41:47.897Z,10.45
2022-09-10T06:44:19.472Z,11.82
2022-09-10T06:47:19.905Z,19.52
2022-09-10T06:49:40.751Z,12.13
2022-09-10T06:52:11.546Z,13.50
2022-09-10T06:54:41.291Z,11.23
2022-09-10T06:57:11.419Z,11.35
2022-09-10T06:59:41.365Z,11.15
2022-09-10T07:02:12.990Z,11.25
2022-09-10T07:04:42.947Z,12.15
2022-09-10T07:07:12.750Z,11.73
2022-09-10T07:09:43.266Z,10.95
2022-09-10T07:12:12.991Z,10.95
2022-09-10T07:14:43.199Z,11.18
2022-09-10T07:17:14.334Z,13.07
2022-09-10T07:19:44.143Z,12.27
2022-09-10T07:22:13.859Z,16.27
2022-09-10T07:24:43.684Z,12.65
2022-09-10T07:27:13.437Z,13.10
2022-09-10T07:29:43.340Z,11.43
2022-09-10T07:32:14.611Z,13.77
2022-09-10T07:34:46.652Z,12.27
2022-09-10T07:37:16.696Z,12.05
2022-09-10T07:39:47.066Z,10.45
2022-09-10T07:42:17.176Z,15.07
2022-09-10T07:44:46.908Z,13.60
2022-09-10T07:47:18.817Z,11.80
2022-09-10T07:49:48.892Z,11.68
2022-09-10T07:52:19.254Z,11.02
2022-09-10T07:54:49.403Z,12.57
2022-09-10T07:57:19.408Z,14.82
2022-09-10T07:59:49.535Z,16.15
2022-09-10T08:02:22.137Z,10.00
2022-09-10T08:04:52.185Z,10.80
2022-09-10T08:07:22.047Z,12.07
2022-09-10T08:09:52.060Z,14.73
2022-09-10T08:12:22.153Z,12.55
2022-09-10T08:14:52.250Z,11.48
2022-09-10T08:17:23.447Z,15.43
2022-09-10T08:19:53.939Z,11.40
2022-09-10T08:22:24.405Z,12.68
2022-09-10T08:24:55.899Z,13.27
2022-09-10T08:27:25.744Z,17.70
2022-09-10T08:29:58.129Z,15.23
2022-09-10T08:32:29.354Z,12.02
2022-09-10T08:34:59.473Z,12.55
2022-09-10T08:37:31.268Z,10.25
2022-09-10T08:40:01.488Z,10.63
2022-09-10T08:42:40.048Z,10.55
2022-09-10T08:45:15.115Z,11.13
2022-09-10T08:47:54.331Z,10.43
2022-09-10T08:50:30.310Z,9.55
2022-09-10T08:53:09.503Z,12.45
2022-09-10T08:55:45.045Z,11.30
2022-09-10T08:58:42.529Z,10.43
2022-09-10T09:01:19.177Z,11.55
2022-09-10T09:03:50.909Z,13.05
2022-09-10T09:06:29.708Z,14.90
2022-09-10T09:09:01.937Z,12.38
2022-09-10T09:11:42.261Z,10.70
2022-09-10T09:14:33.647Z,11.27
2022-09-10T09:17:27.749Z,10.82
2022-09-10T09:20:11.203Z,10.68
2022-09-10T09:22:51.383Z,10.38
2022-09-10T09:25:28.906Z,11.93
2022-09-10T09:27:59.965Z,13.77
2022-09-10T09:30:35.696Z,10.93
2022-09-10T09:33:14.736Z,12.30
2022-09-10T09:35:50.379Z,11.73
2022-09-10T09:38:24.816Z,12.10
2022-09-10T09:40:58.019Z,12.13
2022-09-10T09:43:36.310Z,10.00
2022-09-10T09:46:16.806Z,13.10
2022-09-10T09:48:48.018Z,15.18
2022-09-10T09:51:21.504Z,15.07
2022-09-10T09:56:45.636Z,10.30
2022-09-10T09:59:26.892Z,11.68
2022-09-10T10:02:00.720Z,11.63
2022-09-10T10:04:33.945Z,9.88
2022-09-10T10:07:05.610Z,9.38
2022-09-10T10:09:43.499Z,9.82
2022-09-10T10:12:21.070Z,11.38
2022-09-10T10:14:51.473Z,11.73
2022-09-10T10:17:35.066Z,11.32
2022-09-10T10:20:11.424Z,13.13
2022-09-10T10:22:44.226Z,10.45
2022-09-10T10:25:38.446Z,10.48
2022-09-10T10:28:17.528Z,9.45
2022-09-10T10:30:53.457Z,9.75
2022-09-10T10:33:29.424Z,10.18
2022-09-10T10:36:11.763Z,10.35
2022-09-10T10:38:49.347Z,9.98
2022-09-10T10:41:40.967Z,10.63
2022-09-10T10:44:35.346Z,10.13
2022-09-10T10:47:24.484Z,11.00
2022-09-10T10:50:04.729Z,9.85
2022-09-10T10:52:44.562Z,10.25
2022-09-10T10:55:24.477Z,9.80
2022-09-10T10:58:10.469Z,9.50
2022-09-10T11:00:45.495Z,11.60
2022-09-10T11:03:23.987Z,10.80
2022-09-10T11:06:00.912Z,14.00
2022-09-10T11:08:36.837Z,12.50
2022-09-10T11:11:14.327Z,10.57
2022-09-10T11:13:48.436Z,9.90
2022-09-10T11:16:24.494Z,10.73
2022-09-10T11:18:58.341Z,11.45
2022-09-10T11:21:33.063Z,12.07
2022-09-10T11:24:11.981Z,9.77
2022-09-10T11:26:52.176Z,11.85
2022-09-10T11:29:35.463Z,12.23
2022-09-10T11:32:10.008Z,11.75
2022-09-10T11:34:49.420Z,11.23
2022-09-10T11:37:25.554Z,11.32
2022-09-10T11:40:01.150Z,11.27
2022-09-10T11:42:40.873Z,10.07
2022-09-10T11:45:21.979Z,10.52
2022-09-10T11:48:00.385Z,10.30
2022-09-10T11:50:38.022Z,10.68
2022-09-10T11:53:12.747Z,11.32
2022-09-10T11:55:59.470Z,12.25
2022-09-10T11:58:40.722Z,11.82
2022-09-10T12:01:17.700Z,10.02
2022-09-10T12:04:05.640Z,11.23
2022-09-10T12:06:54.877Z,11.60
2022-09-10T12:09:31.217Z,19.42
2022-09-10T12:12:10.380Z,11.05
2022-09-10T12:14:42.394Z,10.35
2022-09-10T12:17:18.482Z,9.85
2022-09-10T12:19:53.137Z,10.15
2022-09-10T12:22:28.204Z,10.25
2022-09-10T12:25:03.085Z,10.05
2022-09-10T12:27:46.443Z,14.15
2022-09-10T12:30:55.919Z,17.75
2022-09-10T12:34:16.551Z,13.85
2022-09-10T12:37:24.778Z,12.45
2022-09-10T12:40:40.519Z,14.80
2022-09-10T12:43:51.587Z,16.42
2022-09-10T12:46:25.785Z,10.50
2022-09-10T12:49:12.015Z,11.38
2022-09-10T12:51:57.947Z,11.07
2022-09-10T12:54:50.878Z,13.45
2022-09-10T12:57:29.166Z,12.98
2022-09-10T13:00:19.310Z,12.50
2022-09-10T13:02:53.936Z,9.75
2022-09-10T13:05:32.282Z,8.93
2022-09-10T13:08:12.224Z,9.77
2022-09-10T13:10:44.711Z,10.05
2022-09-10T13:13:34.185Z,13.38
2022-09-10T13:16:06.307Z,14.02
2022-09-10T13:18:39.176Z,9.68
2022-09-10T13:21:42.215Z,13.30
2022-09-10T13:25:00.766Z,14.43
2022-09-10T13:27:39.735Z,18.05
2022-09-10T13:30:17.910Z,23.27
2022-09-10T13:32:51.887Z,21.75
2022-09-10T13:35:45.518Z,12.23
2022-09-10T13:38:39.879Z,17.15
2022-09-10T13:41:36.489Z,14.32
2022-09-10T13:44:22.742Z,10.75
2022-09-10T13:46:57.446Z,20.15
2022-09-10T13:49:36.421Z,14.43
2022-09-10T13:52:13.760Z,13.07
2022-09-10T13:54:51.683Z,9.52
2022-09-10T13:57:31.330Z,11.25
2022-09-10T14:00:07.202Z,9.80
2022-09-10T14:02:48.610Z,9.07
2022-09-10T14:05:27.528Z,9.60
2022-09-10T14:08:01.798Z,9.73
2022-09-10T14:10:33.915Z,8.90
2022-09-10T14:13:05.925Z,9.02
2022-09-10T14:15:40.392Z,10.48
2022-09-10T14:18:12.348Z,10.32
2022-09-10T14:20:43.288Z,9.82
2022-09-10T14:23:17.027Z,10.18
2022-09-10T14:25:47.661Z,10.40
2022-09-10T14:28:25.845Z,10.35
2022-09-10T14:31:21.027Z,10.93
2022-09-10T14:33:51.140Z,10.18
2022-09-10T14:36:24.153Z,9.95
2022-09-10T14:38:57.838Z,9.85
2022-09-10T14:41:31.467Z,9.82
2022-09-10T14:44:29.826Z,10.52
2022-09-10T14:47:01.071Z,9.60
2022-09-10T14:49:33.944Z,10.30
2022-09-10T14:52:05.176Z,9.10
2022-09-10T14:54:36.262Z,10.60
2022-09-10T14:57:13.318Z,10.63
2022-09-10T14:59:46.563Z,10.40
2022-09-10T15:02:20.821Z,8.70
2022-09-10T15:04:51.000Z,10.57
2022-09-10T15:07:21.299Z,11.50
2022-09-10T15:09:54.296Z,11.15
2022-09-10T15:12:27.139Z,10.57
2022-09-10T15:14:59.253Z,11.82
2022-09-10T15:17:29.710Z,10.80
2022-09-10T15:19:59.903Z,11.45
2022-09-10T15:22:31.635Z,10.77
2022-09-10T15:25:10.541Z,10.95
2022-09-10T15:27:42.007Z,10.52
2022-09-10T15:30:13.576Z,11.75
2022-09-10T15:32:43.457Z,10.77
2022-09-10T15:35:13.868Z,12.23
2022-09-10T15:37:43.735Z,13.13
2022-09-10T15:40:13.720Z,11.90
2022-09-10T15:42:43.921Z,12.88
2022-09-10T15:45:15.376Z,12.05
2022-09-10T15:47:45.529Z,12.15
2022-09-10T15:50:16.386Z,11.30
2022-09-10T15:52:46.431Z,11.70
2022-09-10T15:55:16.627Z,11.88
2022-09-10T15:57:47.575Z,12.20
2022-09-10T16:00:20.446Z,12.15
2022-09-10T16:02:54.522Z,12.75
2022-09-10T16:05:24.849Z,13.70
2022-09-10T16:07:55.048Z,15.50
2022-09-10T16:10:25.280Z,13.05
2022-09-10T16:12:55.344Z,13.27
2022-09-10T16:15:27.336Z,14.38
2022-09-10T16:17:58.263Z,13.52
2022-09-10T16:20:28.519Z,13.18
2022-09-10T16:22:59.747Z,13.85
2022-09-10T16:25:31.249Z,14.45
2022-09-10T16:28:01.698Z,13.50
2022-09-10T16:30:33.247Z,14.02
2022-09-10T16:33:03.335Z,15.00
2022-09-10T16:35:36.019Z,14.38
2022-09-10T16:38:06.358Z,15.23
2022-09-10T16:40:36.338Z,15.20
2022-09-10T16:43:07.075Z,14.00
2022-09-10T16:45:38.449Z,15.52
2022-09-10T16:48:08.587Z,15.85
2022-09-10T16:50:38.655Z,16.60
2022-09-10T16:53:12.014Z,16.50
2022-09-10T16:55:42.207Z,16.30
2022-09-10T16:58:13.312Z,15.48
2022-09-10T17:00:44.926Z,14.10
2022-09-10T17:03:15.528Z,14.70
2022-09-10T17:05:46.919Z,13.95
2022-09-10T17:08:17.150Z,13.82
2022-09-10T17:10:47.584Z,12.77
2022-09-10T17:13:17.965Z,12.27
2022-09-10T17:15:49.635Z,12.13
2022-09-10T17:18:19.725Z,13.45
2022-09-10T17:20:49.965Z,13.93
2022-09-10T17:23:20.219Z,14.40
2022-09-10T17:25:50.637Z,14.40
2022-09-10T17:28:20.609Z,14.43
2022-09-10T17:30:56.621Z,14.43
2022-09-10T17:33:27.441Z,13.60
2022-09-10T17:35:58.534Z,14.80
2022-09-10T17:38:32.376Z,13.55
2022-09-10T17:41:04.684Z,14.20
2022-09-10T17:46:10.722Z,15.10
2022-09-10T17:48:41.396Z,15.07
2022-09-10T17:51:14.052Z,13.70
2022-09-10T17:53:46.590Z,15.37
2022-09-10T17:56:19.167Z,14.65
2022-09-10T17:58:49.859Z,13.33
2022-09-10T18:01:25.745Z,14.02
2022-09-10T18:03:56.683Z,14.55
2022-09-10T18:06:29.425Z,15.70
2022-09-10T18:09:02.052Z,13.40
2022-09-10T18:11:36.017Z,13.50
2022-09-10T18:14:07.416Z,15.00
2022-09-10T18:16:38.967Z,13.90
2022-09-10T18:19:14.266Z,14.43
2022-09-10T18:21:46.812Z,14.18
2022-09-10T18:24:19.264Z,13.75
2022-09-10T18:26:50.552Z,14.25
2022-09-10T18:29:22.362Z,14.07
2022-09-10T18:31:57.804Z,15.15
2022-09-10T18:34:46.889Z,13.77
2022-09-10T18:37:17.104Z,13.18
2022-09-10T18:39:48.156Z,13.52
2022-09-10T18:42:18.267Z,13.90
2022-09-10T18:44:49.342Z,14.95
2022-09-10T18:47:40.930Z,14.40
2022-09-10T18:50:15.276Z,14.15
2022-09-10T18:52:45.695Z,14.63
2022-09-10T18:55:16.280Z,13.52
2022-09-10T18:57:46.354Z,13.48
2022-09-10T19:00:17.480Z,14.10
2022-09-10T19:02:49.790Z,13.20
2022-09-10T19:05:20.027Z,12.32
2022-09-10T19:07:50.258Z,12.05
2022-09-10T19:10:23.041Z,12.73
2022-09-10T19:12:55.739Z,11.55
2022-09-10T19:15:28.084Z,13.43
2022-09-10T19:18:01.357Z,12.25
2022-09-10T19:20:37.753Z,13.50
2022-09-10T19:23:09.747Z,12.65
2022-09-10T19:25:40.898Z,17.20
2022-09-10T19:28:11.236Z,12.32
2022-09-10T19:30:41.063Z,12.45
2022-09-10T19:33:12.635Z,11.43
2022-09-10T19:35:42.613Z,12.25
2022-09-10T19:38:34.268Z,12.18
2022-09-10T19:41:05.632Z,10.73
2022-09-10T19:43:37.147Z,12.40
2022-09-10T19:46:10.181Z,11.07
2022-09-10T19:48:42.327Z,12.18
2022-09-10T19:51:14.467Z,12.55
2022-09-10T19:53:44.702Z,11.55
2022-09-10T19:56:20.267Z,11.80
2022-09-10T19:58:52.167Z,11.98
2022-09-10T20:01:24.052Z,12.70
2022-09-10T20:03:56.250Z,12.63
2022-09-10T20:06:26.430Z,12.52
2022-09-10T20:08:57.534Z,12.52
2022-09-10T20:11:29.962Z,12.57
2022-09-10T20:14:03.445Z,12.75
2022-09-10T20:16:33.837Z,12.57
2022-09-10T20:19:06.244Z,12.77
2022-09-10T20:21:37.551Z,13.02
2022-09-10T20:24:08.287Z,13.00
2022-09-10T20:26:41.129Z,14.07
2022-09-10T20:29:13.281Z,14.30
2022-09-10T20:31:44.145Z,15.00
2022-09-10T20:34:17.297Z,14.52
2022-09-10T20:36:47.898Z,14.52
2022-09-10T20:39:20.232Z,14.50
2022-09-10T20:41:50.461Z,14.50
2022-09-10T20:44:20.904Z,14.35
2022-09-10T20:46:51.948Z,15.20
2022-09-10T20:49:23.152Z,15.30
2022-09-10T20:51:53.602Z,14.38
2022-09-10T20:54:23.711Z,14.25
2022-09-10T20:56:53.511Z,15.20
2022-09-10T20:59:27.776Z,15.25
2022-09-10T21:01:58.178Z,15.40
2022-09-10T21:04:29.461Z,15.48
2022-09-10T21:06:59.701Z,14.77
2022-09-10T21:09:29.463Z,15.45
2022-09-10T21:11:59.220Z,15.55
2022-09-10T21:14:28.973Z,14.57
2022-09-10T21:16:58.615Z,14.38
2022-09-10T21:19:29.819Z,14.38
2022-09-10T21:21:59.739Z,14.88
2022-09-10T21:24:29.540Z,14.32
2022-09-10T21:26:59.432Z,13.68
2022-09-10T21:29:29.160Z,14.02
2022-09-10T21:31:59.988Z,13.43
2022-09-10T21:34:32.472Z,13.75
2022-09-10T21:37:02.350Z,13.20
2022-09-10T21:39:32.060Z,13.48
2022-09-10T21:42:04.383Z,14.13
2022-09-10T21:44:34.241Z,13.95
2022-09-10T21:47:04.000Z,13.80
2022-09-10T21:49:35.363Z,12.93
2022-09-10T21:52:05.759Z,15.20
2022-09-10T21:54:36.621Z,16.13
2022-09-10T21:57:10.916Z,14.40
2022-09-10T21:59:41.645Z,15.25
2022-09-10T22:02:11.468Z,14.95
2022-09-10T22:04:43.070Z,15.68
2022-09-10T22:07:14.201Z,15.43
2022-09-10T22:09:43.994Z,14.60
2022-09-10T22:12:13.883Z,16.10
2022-09-10T22:14:43.840Z,15.35
2022-09-10T22:17:13.632Z,14.57
2022-09-10T22:19:44.804Z,15.45
2022-09-10T22:22:14.524Z,14.95
2022-09-10T22:24:44.661Z,13.65
2022-09-10T22:27:14.377Z,13.82
2022-09-10T22:29:45.297Z,13.65
2022-09-10T22:32:15.798Z,13.82
2022-09-10T22:34:48.052Z,13.85
2022-09-10T22:37:18.004Z,13.77
2022-09-10T22:39:47.803Z,14.27
2022-09-10T22:42:21.180Z,13.50
2022-09-10T22:44:51.160Z,13.65
2022-09-10T22:47:20.959Z,14.38
2022-09-10T22:49:52.112Z,14.05
2022-09-10T22:52:21.826Z,14.73
2022-09-10T22:54:52.479Z,14.27
2022-09-10T22:57:22.292Z,14.98
2022-09-10T22:59:52.292Z,15.02
2022-09-10T23:02:22.394Z,14.77
2022-09-10T23:04:53.723Z,15.73
2022-09-10T23:07:25.908Z,15.10
2022-09-10T23:09:55.833Z,15.70
2022-09-10T23:12:25.572Z,14.25
2022-09-10T23:14:55.369Z,15.18
2022-09-10T23:17:25.306Z,15.70
2022-09-10T23:19:56.454Z,15.32
2022-09-10T23:22:26.255Z,15.38
2022-09-10T23:24:56.593Z,14.00
2022-09-10T23:27:26.385Z,14.65
2022-09-10T23:29:56.618Z,14.00
2022-09-10T23:32:26.396Z,14.38
2022-09-10T23:34:57.527Z,13.85
2022-09-10T23:37:27.379Z,15.55
2022-09-10T23:39:57.125Z,14.07
2022-09-10T23:42:27.474Z,14.80
2022-09-10T23:44:57.266Z,15.82
2022-09-10T23:47:27.015Z,14.77
2022-09-10T23:49:58.244Z,15.00
2022-09-10T23:52:27.974Z,15.50
2022-09-10T23:54:57.772Z,16.38
2022-09-10T23:57:27.521Z,14.75
2022-09-10T23:59:57.284Z,15.35
